createdAt,value
2023-05-01T00:04:50.005Z,77783.22
2023-05-01T00:14:53.018Z,77800.78
2023-05-01T00:24:57.387Z,77792.38
2023-05-01T00:35:00.350Z,77792.22
2023-05-01T00:45:05.216Z,77778.81
2023-05-01T00:55:08.953Z,77770.25
2023-05-01T01:05:13.509Z,77775.22
2023-05-01T01:15:27.573Z,77756.81
2023-05-01T01:26:13.159Z,77744.53
2023-05-01T01:36:21.490Z,77754.09
2023-05-01T01:46:26.239Z,77745.56
2023-05-01T01:56:33.110Z,77746.69
2023-05-01T02:06:37.565Z,77731.97
2023-05-01T02:16:43.630Z,77734.53
2023-05-01T02:26:51.477Z,77727.69
2023-05-01T02:36:56.088Z,77723.28
2023-05-01T02:47:01.924Z,77716.00
2023-05-01T02:57:07.028Z,77709.56
2023-05-01T03:07:10.013Z,77710.69
2023-05-01T03:17:14.365Z,77705.00
2023-05-01T03:27:17.396Z,77698.31
2023-05-01T03:37:21.913Z,77698.72
2023-05-01T03:47:25.788Z,77686.44
2023-05-01T03:57:30.525Z,77681.56
2023-05-01T04:07:33.657Z,77669.88
2023-05-01T04:17:38.328Z,77667.88
2023-05-01T04:27:41.534Z,77675.88
2023-05-01T04:37:46.352Z,77680.44
2023-05-01T04:47:49.404Z,77677.56
2023-05-01T04:57:53.867Z,77693.41
2023-05-01T05:07:56.976Z,77687.16
2023-05-01T05:18:15.604Z,77678.88
2023-05-01T05:28:18.928Z,77667.88
2023-05-01T05:38:23.473Z,77682.88
2023-05-01T05:48:29.689Z,77715.28
2023-05-01T05:58:34.308Z,77760.94
2023-05-01T06:08:37.907Z,77798.50
2023-05-01T06:18:45.950Z,77804.38
2023-05-01T06:28:49.140Z,77821.50
2023-05-01T06:38:53.574Z,77866.06
2023-05-01T06:48:57.173Z,77902.78
2023-05-01T06:59:01.655Z,77954.09
2023-05-01T07:09:07.799Z,77999.84
2023-05-01T07:19:18.335Z,78047.88
2023-05-01T07:29:25.912Z,78101.19
2023-05-01T07:39:34.053Z,78132.41
2023-05-01T07:49:43.128Z,78220.66
2023-05-01T07:59:55.411Z,78260.03
2023-05-01T08:10:00.471Z,78288.22
2023-05-01T08:20:09.712Z,78364.53
2023-05-01T08:30:14.397Z,78411.03
2023-05-01T08:40:27.390Z,78457.91
2023-05-01T08:50:30.811Z,78489.44
2023-05-01T09:00:43.174Z,78500.44
2023-05-01T09:10:53.291Z,78475.34
2023-05-01T09:20:58.400Z,78495.88
2023-05-01T09:31:22.613Z,78538.13
2023-05-01T09:41:27.295Z,78581.28
2023-05-01T09:51:31.256Z,78671.44
2023-05-01T10:01:43.132Z,78718.91
2023-05-01T10:11:52.073Z,78714.44
2023-05-01T10:21:56.556Z,78711.34
2023-05-01T10:32:01.355Z,78757.34
2023-05-01T10:42:11.000Z,78694.25
2023-05-01T10:52:15.811Z,78674.31
2023-05-01T11:02:26.496Z,78672.00
2023-05-01T11:12:49.467Z,78707.44
2023-05-01T11:22:54.774Z,78698.94
2023-05-01T11:32:57.911Z,78714.22
2023-05-01T11:43:06.949Z,78711.47
2023-05-01T11:53:12.993Z,78748.97
2023-05-01T12:03:17.796Z,78709.16
2023-05-01T12:13:21.886Z,78684.84
2023-05-01T12:23:35.050Z,78673.72
2023-05-01T12:33:38.056Z,78671.91
2023-05-01T12:43:44.249Z,78716.97
2023-05-01T12:53:51.717Z,78739.66
2023-05-01T13:03:59.611Z,78769.88
2023-05-01T13:14:10.541Z,78780.31
2023-05-01T13:24:15.624Z,78722.59
2023-05-01T13:34:28.860Z,78766.31
2023-05-01T13:44:33.403Z,78723.97
2023-05-01T13:54:41.816Z,78708.03
2023-05-01T14:04:49.548Z,78630.94
2023-05-01T14:14:55.620Z,78618.53
2023-05-01T14:25:08.396Z,78698.59
2023-05-01T14:35:12.450Z,78905.44
2023-05-01T14:45:22.109Z,78928.31
2023-05-01T14:55:32.058Z,78826.69
2023-05-01T15:05:39.515Z,78827.81
2023-05-01T15:15:46.300Z,78823.22
2023-05-01T15:25:56.900Z,78830.13
2023-05-01T15:36:03.244Z,78884.31
2023-05-01T15:46:15.331Z,78840.91
2023-05-01T15:56:18.668Z,78714.78
2023-05-01T16:06:28.315Z,78620.84
2023-05-01T16:16:35.575Z,78534.84
2023-05-01T16:26:46.239Z,78500.44
2023-05-01T16:36:51.330Z,78459.16
2023-05-01T16:47:00.978Z,78399.34
2023-05-01T16:57:10.405Z,78372.41
2023-05-01T17:07:17.996Z,78384.56
2023-05-01T17:17:25.093Z,78373.69
2023-05-01T17:27:37.768Z,78356.22
2023-05-01T17:37:41.134Z,78334.03
2023-05-01T17:47:51.750Z,78303.38
2023-05-01T17:57:57.729Z,78300.88
2023-05-01T18:08:08.522Z,78295.09
2023-05-01T18:18:15.310Z,78256.75
2023-05-01T18:28:29.015Z,78257.91
2023-05-01T18:38:32.297Z,78204.06
2023-05-01T18:48:40.175Z,78154.84
2023-05-01T18:58:43.165Z,78126.69
2023-05-01T19:08:47.639Z,78068.47
2023-05-01T19:18:50.680Z,78035.28
2023-05-01T19:28:55.100Z,78005.56
2023-05-01T19:38:58.166Z,77972.38
2023-05-01T19:49:02.699Z,77937.66
2023-05-01T19:59:05.693Z,77926.66
2023-05-01T20:09:10.029Z,77881.63
2023-05-01T20:19:13.638Z,77875.81
2023-05-01T20:29:18.103Z,77850.06
2023-05-01T20:39:21.206Z,77830.63
2023-05-01T20:49:25.587Z,77815.22
2023-05-01T20:59:28.605Z,77783.66
2023-05-01T21:09:33.650Z,77760.94
2023-05-01T21:19:41.322Z,77745.53
2023-05-01T21:29:45.833Z,77722.69
2023-05-01T21:39:50.088Z,77697.72
2023-05-01T21:49:58.274Z,77698.13
2023-05-01T22:00:01.909Z,77721.41
2023-05-01T22:10:08.043Z,77733.53
2023-05-01T22:20:11.327Z,77751.25
2023-05-01T22:30:16.111Z,77761.97
2023-05-01T22:40:19.158Z,77778.22
2023-05-01T22:50:23.584Z,77772.38
2023-05-01T23:00:26.554Z,77779.66
2023-05-01T23:10:33.006Z,77793.50
2023-05-01T23:20:40.031Z,77787.81
2023-05-01T23:30:45.871Z,77783.81
2023-05-01T23:40:49.747Z,77747.25
2023-05-01T23:50:54.182Z,77718.00
